sensor_id;sensor_type;location;lat;lon;timestamp;pressure;altitude;pressure_sealevel;temperature;humidity
33404;BME280;19751;40.274;18.268;2023-05-23T00:01:35;100759.25;;;18.79;100.00
33404;BME280;19751;40.274;18.268;2023-05-23T00:04:04;100758.41;;;18.79;100.00
33404;BME280;19751;40.274;18.268;2023-05-23T00:06:30;100757.00;;;18.76;100.00
33404;BME280;19751;40.274;18.268;2023-05-23T00:08:56;100755.00;;;18.72;100.00
33404;BME280;19751;40.274;18.268;2023-05-23T00:11:22;100763.53;;;18.75;100.00
33404;BME280;19751;40.274;18.268;2023-05-23T00:13:52;100760.53;;;18.77;100.00
33404;BME280;19751;40.274;18.268;2023-05-23T00:16:18;100764.94;;;18.78;100.00
33404;BME280;19751;40.274;18.268;2023-05-23T00:18:43;100759.81;;;18.81;100.00
33404;BME280;19751;40.274;18.268;2023-05-23T00:21:12;100748.91;;;18.81;100.00
33404;BME280;19751;40.274;18.268;2023-05-23T00:23:38;100754.97;;;18.83;100.00
33404;BME280;19751;40.274;18.268;2023-05-23T00:26:10;100757.19;;;18.86;100.00
33404;BME280;19751;40.274;18.268;2023-05-23T00:28:38;100755.31;;;18.87;100.00
33404;BME280;19751;40.274;18.268;2023-05-23T00:31:04;100750.88;;;18.86;100.00
33404;BME280;19751;40.274;18.268;2023-05-23T00:33:30;100754.22;;;18.88;100.00
33404;BME280;19751;40.274;18.268;2023-05-23T00:35:58;100746.25;;;18.86;100.00
33404;BME280;19751;40.274;18.268;2023-05-23T00:38:24;100751.72;;;18.86;100.00
33404;BME280;19751;40.274;18.268;2023-05-23T00:40:51;100754.69;;;18.85;100.00
33404;BME280;19751;40.274;18.268;2023-05-23T00:43:16;100754.97;;;18.83;100.00
33404;BME280;19751;40.274;18.268;2023-05-23T00:45:42;100744.78;;;18.79;100.00
33404;BME280;19751;40.274;18.268;2023-05-23T00:48:08;100747.16;;;18.75;100.00
33404;BME280;19751;40.274;18.268;2023-05-23T00:50:34;100753.34;;;18.71;100.00
33404;BME280;19751;40.274;18.268;2023-05-23T00:53:00;100755.91;;;18.66;100.00
33404;BME280;19751;40.274;18.268;2023-05-23T00:55:36;100751.69;;;18.58;100.00
33404;BME280;19751;40.274;18.268;2023-05-23T00:58:03;100754.19;;;18.48;100.00
33404;BME280;19751;40.274;18.268;2023-05-23T01:00:29;100761.22;;;18.44;100.00
33404;BME280;19751;40.274;18.268;2023-05-23T01:02:56;100755.41;;;18.40;100.00
33404;BME280;19751;40.274;18.268;2023-05-23T01:05:22;100757.78;;;18.36;100.00
33404;BME280;19751;40.274;18.268;2023-05-23T01:07:49;100753.16;;;18.37;100.00
33404;BME280;19751;40.274;18.268;2023-05-23T01:10:16;100740.13;;;18.39;100.00
33404;BME280;19751;40.274;18.268;2023-05-23T01:15:11;100744.28;;;18.42;100.00
33404;BME280;19751;40.274;18.268;2023-05-23T01:20:20;100736.09;;;18.42;100.00
33404;BME280;19751;40.274;18.268;2023-05-23T01:28:28;100740.66;;;18.53;100.00
33404;BME280;19751;40.274;18.268;2023-05-23T01:30:57;100736.38;;;18.57;100.00
33404;BME280;19751;40.274;18.268;2023-05-23T01:33:24;100739.47;;;18.60;100.00
33404;BME280;19751;40.274;18.268;2023-05-23T01:35:50;100738.06;;;18.58;100.00
33404;BME280;19751;40.274;18.268;2023-05-23T01:38:16;100742.56;;;18.52;100.00
33404;BME280;19751;40.274;18.268;2023-05-23T01:40:41;100734.84;;;18.49;100.00
33404;BME280;19751;40.274;18.268;2023-05-23T01:43:07;100731.31;;;18.49;100.00
33404;BME280;19751;40.274;18.268;2023-05-23T01:45:32;100723.38;;;18.47;100.00
33404;BME280;19751;40.274;18.268;2023-05-23T01:47:59;100719.81;;;18.47;100.00
33404;BME280;19751;40.274;18.268;2023-05-23T01:50:27;100720.91;;;18.46;100.00
33404;BME280;19751;40.274;18.268;2023-05-23T01:52:54;100721.72;;;18.46;100.00
33404;BME280;19751;40.274;18.268;2023-05-23T01:55:21;100716.75;;;18.43;100.00
33404;BME280;19751;40.274;18.268;2023-05-23T01:57:54;100724.09;;;18.43;100.00
33404;BME280;19751;40.274;18.268;2023-05-23T02:00:20;100722.09;;;18.38;100.00
33404;BME280;19751;40.274;18.268;2023-05-23T02:02:46;100723.16;;;18.37;100.00
33404;BME280;19751;40.274;18.268;2023-05-23T02:05:12;100723.16;;;18.37;100.00
33404;BME280;19751;40.274;18.268;2023-05-23T02:07:37;100724.47;;;18.34;100.00
33404;BME280;19751;40.274;18.268;2023-05-23T02:10:05;100726.38;;;18.34;100.00
33404;BME280;19751;40.274;18.268;2023-05-23T02:12:30;100720.09;;;18.33;100.00
33404;BME280;19751;40.274;18.268;2023-05-23T02:14:56;100721.75;;;18.34;100.00
33404;BME280;19751;40.274;18.268;2023-05-23T02:17:21;100718.44;;;18.32;100.00
33404;BME280;19751;40.274;18.268;2023-05-23T02:19:48;100724.13;;;18.31;100.00
33404;BME280;19751;40.274;18.268;2023-05-23T02:22:14;100723.56;;;18.29;100.00
33404;BME280;19751;40.274;18.268;2023-05-23T02:24:39;100717.25;;;18.28;100.00
33404;BME280;19751;40.274;18.268;2023-05-23T02:27:05;100719.97;;;18.28;100.00
33404;BME280;19751;40.274;18.268;2023-05-23T02:29:31;100721.06;;;18.27;100.00
33404;BME280;19751;40.274;18.268;2023-05-23T02:31:56;100722.97;;;18.27;100.00
33404;BME280;19751;40.274;18.268;2023-05-23T02:34:22;100727.22;;;18.23;100.00
33404;BME280;19751;40.274;18.268;2023-05-23T02:36:47;100717.63;;;18.20;100.00
33404;BME280;19751;40.274;18.268;2023-05-23T02:39:13;100728.22;;;18.17;100.00
33404;BME280;19751;40.274;18.268;2023-05-23T02:41:38;100724.06;;;18.14;100.00
33404;BME280;19751;40.274;18.268;2023-05-23T02:44:04;100730.06;;;18.16;100.00
33404;BME280;19751;40.274;18.268;2023-05-23T02:46:30;100729.97;;;18.11;100.00
33404;BME280;19751;40.274;18.268;2023-05-23T02:48:55;100730.81;;;18.11;100.00
33404;BME280;19751;40.274;18.268;2023-05-23T02:51:21;100737.06;;;18.12;100.00
33404;BME280;19751;40.274;18.268;2023-05-23T02:53:46;100734.69;;;18.16;100.00
33404;BME280;19751;40.274;18.268;2023-05-23T02:56:12;100740.16;;;18.16;100.00
33404;BME280;19751;40.274;18.268;2023-05-23T02:58:38;100738.84;;;18.18;100.00
33404;BME280;19751;40.274;18.268;2023-05-23T03:01:04;100735.06;;;18.19;100.00
33404;BME280;19751;40.274;18.268;2023-05-23T03:03:30;100737.78;;;18.19;100.00
33404;BME280;19751;40.274;18.268;2023-05-23T03:05:56;100743.25;;;18.19;100.00
33404;BME280;19751;40.274;18.268;2023-05-23T03:08:23;100743.84;;;18.21;100.00
33404;BME280;19751;40.274;18.268;2023-05-23T03:10:48;100746.31;;;18.23;100.00
33404;BME280;19751;40.274;18.268;2023-05-23T03:13:14;100748.69;;;18.19;100.00
33404;BME280;19751;40.274;18.268;2023-05-23T03:15:40;100751.06;;;18.16;100.00
33404;BME280;19751;40.274;18.268;2023-05-23T03:18:06;100752.13;;;18.14;100.00
33404;BME280;19751;40.274;18.268;2023-05-23T03:20:31;100752.38;;;18.13;100.00
33404;BME280;19751;40.274;18.268;2023-05-23T03:22:57;100752.59;;;18.11;100.00
33404;BME280;19751;40.274;18.268;2023-05-23T03:25:22;100749.53;;;18.08;100.00
33404;BME280;19751;40.274;18.268;2023-05-23T03:27:48;100759.38;;;18.09;100.00
33404;BME280;19751;40.274;18.268;2023-05-23T03:30:13;100756.66;;;18.09;100.00
33404;BME280;19751;40.274;18.268;2023-05-23T03:32:39;100763.75;;;18.10;100.00
33404;BME280;19751;40.274;18.268;2023-05-23T03:35:05;100761.03;;;18.10;100.00
33404;BME280;19751;40.274;18.268;2023-05-23T03:37:30;100774.41;;;18.11;100.00
33404;BME280;19751;40.274;18.268;2023-05-23T03:39:55;100759.75;;;18.12;100.00
33404;BME280;19751;40.274;18.268;2023-05-23T03:42:21;100760.31;;;18.14;100.00
33404;BME280;19751;40.274;18.268;2023-05-23T03:44:46;100770.97;;;18.16;100.00
33404;BME280;19751;40.274;18.268;2023-05-23T03:47:12;100787.94;;;18.18;100.00
33404;BME280;19751;40.274;18.268;2023-05-23T03:49:37;100783.41;;;18.12;100.00
33404;BME280;19751;40.274;18.268;2023-05-23T03:52:03;100779.50;;;18.08;100.00
33404;BME280;19751;40.274;18.268;2023-05-23T03:54:28;100785.47;;;18.05;100.00
33404;BME280;19751;40.274;18.268;2023-05-23T03:56:54;100784.03;;;18.02;100.00
33404;BME280;19751;40.274;18.268;2023-05-23T03:59:19;100791.72;;;17.94;100.00
33404;BME280;19751;40.274;18.268;2023-05-23T04:01:45;100791.84;;;17.87;100.00
33404;BME280;19751;40.274;18.268;2023-05-23T04:04:10;100800.25;;;17.85;100.00
33404;BME280;19751;40.274;18.268;2023-05-23T04:06:36;100796.09;;;17.83;100.00
33404;BME280;19751;40.274;18.268;2023-05-23T04:09:02;100796.69;;;17.85;100.00
33404;BME280;19751;40.274;18.268;2023-05-23T04:11:27;100798.81;;;17.83;100.00
33404;BME280;19751;40.274;18.268;2023-05-23T04:13:54;100799.78;;;17.88;100.00
33404;BME280;19751;40.274;18.268;2023-05-23T04:16:19;100799.06;;;17.93;100.00
33404;BME280;19751;40.274;18.268;2023-05-23T04:18:48;100801.66;;;18.00;100.00
33404;BME280;19751;40.274;18.268;2023-05-23T04:21:14;100798.00;;;18.06;100.00
33404;BME280;19751;40.274;18.268;2023-05-23T04:23:40;100796.47;;;18.10;100.00
33404;BME280;19751;40.274;18.268;2023-05-23T04:26:05;100804.75;;;18.15;100.00
33404;BME280;19751;40.274;18.268;2023-05-23T04:28:31;100799.19;;;18.22;100.00
33404;BME280;19751;40.274;18.268;2023-05-23T04:30:56;100801.19;;;18.26;100.00
33404;BME280;19751;40.274;18.268;2023-05-23T04:33:23;100806.19;;;18.29;100.00
33404;BME280;19751;40.274;18.268;2023-05-23T04:35:48;100798.94;;;18.35;100.00
33404;BME280;19751;40.274;18.268;2023-05-23T04:38:16;100806.63;;;18.38;100.00
33404;BME280;19751;40.274;18.268;2023-05-23T04:40:42;100803.41;;;18.41;100.00
33404;BME280;19751;40.274;18.268;2023-05-23T04:43:07;100805.66;;;18.44;100.00
33404;BME280;19751;40.274;18.268;2023-05-23T04:45:34;100802.47;;;18.47;100.00
33404;BME280;19751;40.274;18.268;2023-05-23T04:48:01;100804.13;;;18.48;100.00
33404;BME280;19751;40.274;18.268;2023-05-23T04:50:27;100799.75;;;18.47;100.00
33404;BME280;19751;40.274;18.268;2023-05-23T04:52:57;100800.91;;;18.51;100.00
33404;BME280;19751;40.274;18.268;2023-05-23T04:55:22;100804.47;;;18.52;100.00
33404;BME280;19751;40.274;18.268;2023-05-23T04:57:47;100807.81;;;18.54;100.00
33404;BME280;19751;40.274;18.268;2023-05-23T05:00:13;100806.72;;;18.55;100.00
33404;BME280;19751;40.274;18.268;2023-05-23T05:02:40;100808.97;;;18.58;100.00
33404;BME280;19751;40.274;18.268;2023-05-23T05:05:06;100810.28;;;18.55;100.00
33404;BME280;19751;40.274;18.268;2023-05-23T05:07:32;100814.44;;;18.58;100.00
33404;BME280;19751;40.274;18.268;2023-05-23T05:10:00;100811.94;;;18.56;100.00
33404;BME280;19751;40.274;18.268;2023-05-23T05:12:25;100808.38;;;18.56;100.00
33404;BME280;19751;40.274;18.268;2023-05-23T05:14:51;100805.19;;;18.59;100.00
33404;BME280;19751;40.274;18.268;2023-05-23T05:17:16;100816.19;;;18.64;100.00
33404;BME280;19751;40.274;18.268;2023-05-23T05:19:44;100812.16;;;18.67;100.00
33404;BME280;19751;40.274;18.268;2023-05-23T05:22:10;100806.34;;;18.63;100.00
33404;BME280;19751;40.274;18.268;2023-05-23T05:24:35;100806.94;;;18.65;100.00
33404;BME280;19751;40.274;18.268;2023-05-23T05:27:01;100808.34;;;18.68;100.00
33404;BME280;19751;40.274;18.268;2023-05-23T05:29:26;100800.31;;;18.73;100.00
33404;BME280;19751;40.274;18.268;2023-05-23T05:31:52;100806.69;;;18.78;100.00
33404;BME280;19751;40.274;18.268;2023-05-23T05:34:18;100797.53;;;18.84;100.00
33404;BME280;19751;40.274;18.268;2023-05-23T05:36:43;100804.16;;;18.88;100.00
33404;BME280;19751;40.274;18.268;2023-05-23T05:39:15;100801.19;;;18.90;100.00
33404;BME280;19751;40.274;18.268;2023-05-23T05:41:41;100803.44;;;18.93;100.00
33404;BME280;19751;40.274;18.268;2023-05-23T05:44:07;100802.34;;;18.94;100.00
33404;BME280;19751;40.274;18.268;2023-05-23T05:46:33;100799.50;;;19.01;100.00
33404;BME280;19751;40.274;18.268;2023-05-23T05:48:58;100808.59;;;19.06;100.00
33404;BME280;19751;40.274;18.268;2023-05-23T05:51:24;100806.22;;;19.10;100.00
33404;BME280;19751;40.274;18.268;2023-05-23T05:53:49;100803.34;;;19.17;100.00
33404;BME280;19751;40.274;18.268;2023-05-23T05:56:15;100800.97;;;19.20;100.00
33404;BME280;19751;40.274;18.268;2023-05-23T05:58:40;100801.53;;;19.22;100.00
33404;BME280;19751;40.274;18.268;2023-05-23T06:01:06;100800.78;;;19.27;100.00
33404;BME280;19751;40.274;18.268;2023-05-23T06:03:32;100808.72;;;19.28;100.00
33404;BME280;19751;40.274;18.268;2023-05-23T06:05:58;100811.22;;;19.30;100.00
33404;BME280;19751;40.274;18.268;2023-05-23T06:08:24;100814.03;;;19.35;100.00
33404;BME280;19751;40.274;18.268;2023-05-23T06:10:49;100807.00;;;19.39;100.00
33404;BME280;19751;40.274;18.268;2023-05-23T06:13:15;100814.25;;;19.45;100.00
33404;BME280;19751;40.274;18.268;2023-05-23T06:15:41;100800.19;;;19.53;100.00
33404;BME280;19751;40.274;18.268;2023-05-23T06:18:07;100807.97;;;19.61;100.00
33404;BME280;19751;40.274;18.268;2023-05-23T06:20:32;100805.56;;;19.65;100.00
33404;BME280;19751;40.274;18.268;2023-05-23T06:22:58;100811.16;;;19.70;100.00
33404;BME280;19751;40.274;18.268;2023-05-23T06:25:24;100803.50;;;19.72;100.00
33404;BME280;19751;40.274;18.268;2023-05-23T06:27:50;100801.69;;;19.78;100.00
33404;BME280;19751;40.274;18.268;2023-05-23T06:30:15;100806.16;;;19.84;100.00
33404;BME280;19751;40.274;18.268;2023-05-23T06:32:41;100809.22;;;19.88;100.00
33404;BME280;19751;40.274;18.268;2023-05-23T06:35:06;100813.13;;;19.92;100.00
33404;BME280;19751;40.274;18.268;2023-05-23T06:37:32;100812.59;;;19.95;100.00
33404;BME280;19751;40.274;18.268;2023-05-23T06:39:58;100821.13;;;19.98;100.00
33404;BME280;19751;40.274;18.268;2023-05-23T06:42:24;100812.44;;;20.01;100.00
33404;BME280;19751;40.274;18.268;2023-05-23T06:44:49;100824.53;;;20.05;100.00
33404;BME280;19751;40.274;18.268;2023-05-23T06:47:15;100822.63;;;20.06;100.00
33404;BME280;19751;40.274;18.268;2023-05-23T06:49:40;100828.16;;;20.11;100.00
33404;BME280;19751;40.274;18.268;2023-05-23T06:52:07;100823.84;;;20.15;100.00
33404;BME280;19751;40.274;18.268;2023-05-23T06:54:32;100825.84;;;20.20;100.00
33404;BME280;19751;40.274;18.268;2023-05-23T06:56:58;100825.34;;;20.23;100.00
33404;BME280;19751;40.274;18.268;2023-05-23T06:59:23;100820.19;;;20.26;100.00
33404;BME280;19751;40.274;18.268;2023-05-23T07:01:49;100815.53;;;20.27;100.00
33404;BME280;19751;40.274;18.268;2023-05-23T07:04:14;100817.78;;;20.30;100.00
33404;BME280;19751;40.274;18.268;2023-05-23T07:06:40;100815.38;;;20.33;100.00
33404;BME280;19751;40.274;18.268;2023-05-23T07:09:05;100817.34;;;20.38;100.00
33404;BME280;19751;40.274;18.268;2023-05-23T07:11:31;100821.50;;;20.41;100.00
33404;BME280;19751;40.274;18.268;2023-05-23T07:13:58;100813.91;;;20.48;100.00
33404;BME280;19751;40.274;18.268;2023-05-23T07:16:23;100817.84;;;20.52;100.00
33404;BME280;19751;40.274;18.268;2023-05-23T07:18:49;100819.81;;;20.56;100.00
33404;BME280;19751;40.274;18.268;2023-05-23T07:21:14;100824.78;;;20.59;100.00
33404;BME280;19751;40.274;18.268;2023-05-23T07:23:40;100815.25;;;20.62;100.00
33404;BME280;19751;40.274;18.268;2023-05-23T07:26:05;100817.44;;;20.65;100.00
33404;BME280;19751;40.274;18.268;2023-05-23T07:28:34;100820.78;;;20.67;100.00
33404;BME280;19751;40.274;18.268;2023-05-23T07:30:59;100814.81;;;20.70;100.00
33404;BME280;19751;40.274;18.268;2023-05-23T07:33:25;100813.44;;;20.73;100.00
33404;BME280;19751;40.274;18.268;2023-05-23T07:35:50;100810.47;;;20.74;100.00
33404;BME280;19751;40.274;18.268;2023-05-23T07:38:16;100824.22;;;20.79;100.00
33404;BME280;19751;40.274;18.268;2023-05-23T07:40:41;100808.34;;;20.81;100.00
33404;BME280;19751;40.274;18.268;2023-05-23T07:43:07;100813.59;;;20.83;100.00
33404;BME280;19751;40.274;18.268;2023-05-23T07:45:32;100820.72;;;20.84;98.83
33404;BME280;19751;40.274;18.268;2023-05-23T07:47:57;100817.69;;;20.85;93.83
33404;BME280;19751;40.274;18.268;2023-05-23T07:50:23;100816.97;;;20.90;93.35
33404;BME280;19751;40.274;18.268;2023-05-23T07:52:52;100814.50;;;20.94;93.30
33404;BME280;19751;40.274;18.268;2023-05-23T07:55:17;100811.84;;;20.99;92.94
33404;BME280;19751;40.274;18.268;2023-05-23T07:57:43;100816.28;;;21.05;93.16
33404;BME280;19751;40.274;18.268;2023-05-23T08:00:08;100811.63;;;21.05;93.14
33404;BME280;19751;40.274;18.268;2023-05-23T08:02:34;100806.47;;;21.09;93.88
33404;BME280;19751;40.274;18.268;2023-05-23T08:05:00;100806.53;;;21.14;92.92
33404;BME280;19751;40.274;18.268;2023-05-23T08:07:25;100799.72;;;21.17;92.06
33404;BME280;19751;40.274;18.268;2023-05-23T08:09:51;100806.59;;;21.19;91.70
33404;BME280;19751;40.274;18.268;2023-05-23T08:12:16;100806.06;;;21.22;89.88
33404;BME280;19751;40.274;18.268;2023-05-23T08:14:42;100808.56;;;21.24;90.07
33404;BME280;19751;40.274;18.268;2023-05-23T08:17:07;100815.47;;;21.31;89.97
33404;BME280;19751;40.274;18.268;2023-05-23T08:19:33;100811.16;;;21.35;87.07
33404;BME280;19751;40.274;18.268;2023-05-23T08:21:58;100813.38;;;21.39;87.63
33404;BME280;19751;40.274;18.268;2023-05-23T08:24:23;100806.06;;;21.44;87.82
33404;BME280;19751;40.274;18.268;2023-05-23T08:26:49;100821.72;;;21.49;88.25
33404;BME280;19751;40.274;18.268;2023-05-23T08:29:15;100820.66;;;21.55;88.62
33404;BME280;19751;40.274;18.268;2023-05-23T08:31:40;100815.19;;;21.55;88.11
33404;BME280;19751;40.274;18.268;2023-05-23T08:34:06;100823.97;;;21.57;84.56
33404;BME280;19751;40.274;18.268;2023-05-23T08:36:32;100822.88;;;21.58;83.44
33404;BME280;19751;40.274;18.268;2023-05-23T08:39:00;100820.97;;;21.58;83.21
33404;BME280;19751;40.274;18.268;2023-05-23T08:41:26;100826.44;;;21.58;80.49
33404;BME280;19751;40.274;18.268;2023-05-23T08:43:51;100823.44;;;21.60;80.94
33404;BME280;19751;40.274;18.268;2023-05-23T08:46:17;100825.94;;;21.62;80.78
33404;BME280;19751;40.274;18.268;2023-05-23T08:48:46;100822.94;;;21.63;77.28
33404;BME280;19751;40.274;18.268;2023-05-23T08:51:16;100827.59;;;21.63;76.38
33404;BME280;19751;40.274;18.268;2023-05-23T08:53:44;100835.84;;;21.68;77.38
33404;BME280;19751;40.274;18.268;2023-05-23T08:56:14;100826.78;;;21.67;73.58
33404;BME280;19751;40.274;18.268;2023-05-23T08:58:41;100827.94;;;21.71;70.30
33404;BME280;19751;40.274;18.268;2023-05-23T09:01:11;100829.63;;;21.77;68.36
33404;BME280;19751;40.274;18.268;2023-05-23T09:03:37;100830.47;;;21.78;66.95
33404;BME280;19751;40.274;18.268;2023-05-23T09:06:08;100826.31;;;21.75;68.42
33404;BME280;19751;40.274;18.268;2023-05-23T09:08:34;100815.09;;;21.77;72.89
33404;BME280;19751;40.274;18.268;2023-05-23T09:11:01;100829.69;;;21.82;75.31
33404;BME280;19751;40.274;18.268;2023-05-23T09:13:32;100825.84;;;21.83;74.62
33404;BME280;19751;40.274;18.268;2023-05-23T09:18:31;100819.34;;;21.95;79.31
33404;BME280;19751;40.274;18.268;2023-05-23T09:20:57;100821.00;;;21.96;79.14
33404;BME280;19751;40.274;18.268;2023-05-23T09:23:23;100824.28;;;21.98;80.76
33404;BME280;19751;40.274;18.268;2023-05-23T09:25:48;100823.22;;;21.99;80.12
33404;BME280;19751;40.274;18.268;2023-05-23T09:28:14;100824.56;;;21.96;77.63
33404;BME280;19751;40.274;18.268;2023-05-23T09:30:40;100824.28;;;21.98;78.92
33404;BME280;19751;40.274;18.268;2023-05-23T09:33:05;100832.00;;;22.01;81.50
33404;BME280;19751;40.274;18.268;2023-05-23T09:35:31;100822.44;;;22.03;83.15
33404;BME280;19751;40.274;18.268;2023-05-23T09:37:57;100827.13;;;22.08;84.84
33404;BME280;19751;40.274;18.268;2023-05-23T09:40:29;100836.16;;;22.08;86.02
33404;BME280;19751;40.274;18.268;2023-05-23T09:43:02;100825.78;;;22.11;85.55
33404;BME280;19751;40.274;18.268;2023-05-23T09:45:32;100819.19;;;22.12;85.22
33404;BME280;19751;40.274;18.268;2023-05-23T09:47:58;100815.69;;;22.16;85.90
33404;BME280;19751;40.274;18.268;2023-05-23T09:50:30;100818.97;;;22.18;87.57
33404;BME280;19751;40.274;18.268;2023-05-23T09:52:58;100822.81;;;22.17;86.41
33404;BME280;19751;40.274;18.268;2023-05-23T09:55:23;100823.41;;;22.19;87.83
33404;BME280;19751;40.274;18.268;2023-05-23T09:57:52;100828.09;;;22.24;91.10
33404;BME280;19751;40.274;18.268;2023-05-23T10:00:22;100823.66;;;22.23;92.08
33404;BME280;19751;40.274;18.268;2023-05-23T10:03:11;100826.97;;;22.20;92.55
33404;BME280;19751;40.274;18.268;2023-05-23T10:05:44;100829.72;;;22.25;92.93
33404;BME280;19751;40.274;18.268;2023-05-23T10:13:24;100825.41;;;22.39;92.05
33404;BME280;19751;40.274;18.268;2023-05-23T10:16:07;100832.28;;;22.37;90.61
33404;BME280;19751;40.274;18.268;2023-05-23T10:18:39;100829.53;;;22.37;90.14
33404;BME280;19751;40.274;18.268;2023-05-23T10:21:11;100823.25;;;22.41;91.14
33404;BME280;19751;40.274;18.268;2023-05-23T10:23:41;100821.09;;;22.53;93.52
33404;BME280;19751;40.274;18.268;2023-05-23T10:26:07;100826.88;;;22.57;95.18
33404;BME280;19751;40.274;18.268;2023-05-23T10:28:33;100826.63;;;22.58;95.80
33404;BME280;19751;40.274;18.268;2023-05-23T10:30:58;100832.63;;;22.55;95.27
33404;BME280;19751;40.274;18.268;2023-05-23T10:33:26;100828.25;;;22.54;94.85
33404;BME280;19751;40.274;18.268;2023-05-23T10:35:54;100838.13;;;22.55;96.28
33404;BME280;19751;40.274;18.268;2023-05-23T10:38:33;100830.16;;;22.54;96.84
33404;BME280;19751;40.274;18.268;2023-05-23T10:41:22;100825.50;;;22.59;98.80
33404;BME280;19751;40.274;18.268;2023-05-23T10:43:58;100843.66;;;22.61;98.49
33404;BME280;19751;40.274;18.268;2023-05-23T10:46:54;100848.56;;;22.58;99.05
33404;BME280;19751;40.274;18.268;2023-05-23T10:52:05;100841.97;;;22.59;99.53
33404;BME280;19751;40.274;18.268;2023-05-23T10:54:41;100845.03;;;22.63;100.00
33404;BME280;19751;40.274;18.268;2023-05-23T10:57:09;100837.06;;;22.62;100.00
33404;BME280;19751;40.274;18.268;2023-05-23T10:59:36;100838.41;;;22.59;100.00
33404;BME280;19751;40.274;18.268;2023-05-23T11:02:05;100839.81;;;22.62;100.00
33404;BME280;19751;40.274;18.268;2023-05-23T11:04:34;100842.88;;;22.70;100.00
33404;BME280;19751;40.274;18.268;2023-05-23T11:07:00;100842.59;;;22.72;100.00
33404;BME280;19751;40.274;18.268;2023-05-23T11:09:26;100845.91;;;22.74;100.00
33404;BME280;19751;40.274;18.268;2023-05-23T11:11:53;100838.78;;;22.78;100.00
33404;BME280;19751;40.274;18.268;2023-05-23T11:17:00;100844.56;;;22.81;100.00
33404;BME280;19751;40.274;18.268;2023-05-23T11:19:39;100843.78;;;22.86;100.00
33404;BME280;19751;40.274;18.268;2023-05-23T11:22:08;100832.50;;;22.88;100.00
33404;BME280;19751;40.274;18.268;2023-05-23T11:24:50;100849.25;;;22.86;100.00
33404;BME280;19751;40.274;18.268;2023-05-23T11:27:37;100830.03;;;22.86;100.00
33404;BME280;19751;40.274;18.268;2023-05-23T11:30:05;100838.28;;;22.86;100.00
33404;BME280;19751;40.274;18.268;2023-05-23T11:32:31;100838.56;;;22.90;98.50
33404;BME280;19751;40.274;18.268;2023-05-23T11:35:01;100834.47;;;22.92;98.45
33404;BME280;19751;40.274;18.268;2023-05-23T11:37:29;100834.22;;;22.94;98.09
33404;BME280;19751;40.274;18.268;2023-05-23T11:39:54;100834.75;;;22.96;98.24
33404;BME280;19751;40.274;18.268;2023-05-23T11:42:21;100828.75;;;22.99;96.97
33404;BME280;19751;40.274;18.268;2023-05-23T11:44:51;100839.44;;;23.00;96.28
33404;BME280;19751;40.274;18.268;2023-05-23T11:47:17;100835.06;;;22.99;94.27
33404;BME280;19751;40.274;18.268;2023-05-23T11:49:44;100822.13;;;23.00;92.66
33404;BME280;19751;40.274;18.268;2023-05-23T11:52:11;100833.13;;;23.05;91.96
33404;BME280;19751;40.274;18.268;2023-05-23T11:54:39;100823.00;;;23.11;91.80
33404;BME280;19751;40.274;18.268;2023-05-23T11:57:05;100828.50;;;23.16;91.24
33404;BME280;19751;40.274;18.268;2023-05-23T11:59:31;100819.97;;;23.17;89.03
33404;BME280;19751;40.274;18.268;2023-05-23T12:01:56;100828.22;;;23.22;88.98
33404;BME280;19751;40.274;18.268;2023-05-23T12:04:24;100818.91;;;23.23;90.21
33404;BME280;19751;40.274;18.268;2023-05-23T12:06:50;100823.31;;;23.24;90.33
33404;BME280;19751;40.274;18.268;2023-05-23T12:09:16;100827.16;;;23.28;90.34
33404;BME280;19751;40.274;18.268;2023-05-23T12:11:43;100825.22;;;23.34;89.92
33404;BME280;19751;40.274;18.268;2023-05-23T12:14:14;100817.56;;;23.41;89.32
33404;BME280;19751;40.274;18.268;2023-05-23T12:16:42;100815.91;;;23.45;90.03
33404;BME280;19751;40.274;18.268;2023-05-23T12:19:08;100814.56;;;23.48;89.54
33404;BME280;19751;40.274;18.268;2023-05-23T12:21:42;100817.84;;;23.50;87.48
33404;BME280;19751;40.274;18.268;2023-05-23T12:24:21;100813.44;;;23.54;87.16
33404;BME280;19751;40.274;18.268;2023-05-23T12:26:54;100812.63;;;23.64;86.47
33404;BME280;19751;40.274;18.268;2023-05-23T12:29:31;100806.06;;;23.75;83.75
33404;BME280;19751;40.274;18.268;2023-05-23T12:31:58;100806.31;;;23.78;79.83
33404;BME280;19751;40.274;18.268;2023-05-23T12:34:24;100791.47;;;23.85;75.91
33404;BME280;19751;40.274;18.268;2023-05-23T12:36:56;100803.03;;;23.87;73.49
33404;BME280;19751;40.274;18.268;2023-05-23T12:39:29;100796.41;;;23.88;73.79
33404;BME280;19751;40.274;18.268;2023-05-23T12:42:07;100787.06;;;23.89;74.02
33404;BME280;19751;40.274;18.268;2023-05-23T12:44:34;100783.50;;;23.93;74.55
33404;BME280;19751;40.274;18.268;2023-05-23T12:47:00;100793.09;;;24.01;74.74
33404;BME280;19751;40.274;18.268;2023-05-23T12:49:25;100795.56;;;24.08;73.54
33404;BME280;19751;40.274;18.268;2023-05-23T12:51:51;100801.06;;;24.13;72.69
33404;BME280;19751;40.274;18.268;2023-05-23T12:54:16;100798.03;;;24.14;71.50
33404;BME280;19751;40.274;18.268;2023-05-23T12:56:42;100802.97;;;24.22;72.01